Time;durP1;ratioP1;P1;durP2;ratioP2;P2;SDS_P1;SDS_P2;PMS_P1;PMS_P2;Temp;Humidity;BMP_temperature;BMP_pressure;BME280_temperature;BME280_humidity;BME280_pressure;Samples;Min_cycle;Max_cycle;Signal;HPM_P1;HPM_P2
2022/06/20 00:03:02;;;;;;;1.90;1.80;;;;;;;23.85;40.37;95159.50;6107656;28;103744;-53
2022/06/20 00:06:06;;;;;;;2.47;2.27;;;;;;;23.88;40.07;95167.72;6105894;28;103709;-52
2022/06/20 00:09:10;;;;;;;2.33;2.03;;;;;;;23.93;40.39;95163.31;6111157;28;103339;-53
2022/06/20 00:12:18;;;;;;;2.23;2.13;;;;;;;24.00;39.73;95163.63;6112874;28;104711;-53
2022/06/20 00:15:25;;;;;;;2.07;1.97;;;;;;;23.97;39.95;95157.00;6102762;28;104444;-53
2022/06/20 00:18:31;;;;;;;2.30;2.10;;;;;;;24.01;39.84;95157.19;6115972;28;103924;-52
2022/06/20 00:21:34;;;;;;;2.17;1.97;;;;;;;23.93;40.33;95161.41;6136797;28;104550;-53
2022/06/20 00:24:38;;;;;;;2.53;2.37;;;;;;;23.93;39.50;95160.63;6117429;28;103915;-53
2022/06/20 00:27:41;;;;;;;2.77;2.20;;;;;;;23.89;39.79;95158.59;6104836;28;103519;-53
2022/06/20 00:30:44;;;;;;;1.80;1.70;;;;;;;23.92;40.03;95156.38;6114272;28;104972;-52
2022/06/20 00:33:49;;;;;;;2.63;2.43;;;;;;;23.92;39.64;95156.38;6113285;28;103787;-52
2022/06/20 00:36:52;;;;;;;2.40;2.20;;;;;;;23.97;39.99;95157.00;6106661;28;103853;-52
2022/06/20 00:39:55;;;;;;;2.40;2.30;;;;;;;23.95;40.01;95161.09;6115170;28;105777;-52
2022/06/20 00:43:00;;;;;;;3.03;2.40;;;;;;;23.87;39.63;95163.47;6112071;28;103991;-52
2022/06/20 00:46:09;;;;;;;2.30;2.20;;;;;;;23.86;39.71;95158.44;6112382;28;104156;-52
2022/06/20 00:49:19;;;;;;;2.03;1.93;;;;;;;23.82;39.61;95152.13;6109641;28;103752;-53
2022/06/20 00:52:28;;;;;;;2.10;1.90;;;;;;;23.79;39.86;95158.09;6119458;28;103873;-52
2022/06/20 00:55:38;;;;;;;2.50;2.30;;;;;;;23.73;39.92;95154.81;6111155;28;103822;-52
2022/06/20 00:58:47;;;;;;;2.10;1.90;;;;;;;23.72;40.11;95166.59;6110072;28;103847;-52
2022/06/20 01:01:51;;;;;;;3.30;2.20;;;;;;;23.72;40.06;95169.28;6105303;28;103154;-52
2022/06/20 01:05:00;;;;;;;2.87;1.93;;;;;;;23.70;40.41;95162.66;6119087;28;103635;-52
2022/06/20 01:08:08;;;;;;;2.27;2.10;;;;;;;23.71;39.97;95154.34;6109729;28;103776;-52
2022/06/20 01:11:17;;;;;;;2.67;2.20;;;;;;;23.71;40.28;95145.53;6110661;28;103889;-51
2022/06/20 01:14:27;;;;;;;3.50;2.17;;;;;;;23.69;40.20;95148.53;6130938;28;104834;-51
2022/06/20 01:17:35;;;;;;;2.17;2.07;;;;;;;23.69;40.03;95140.50;6114180;28;103704;-54
2022/06/20 01:20:40;;;;;;;2.30;2.20;;;;;;;23.71;40.16;95132.97;6109296;28;103795;-54
2022/06/20 01:23:51;;;;;;;3.13;2.20;;;;;;;23.70;39.85;95136.72;6125778;28;103748;-53
2022/06/20 01:27:11;;;;;;;3.90;2.50;;;;;;;23.73;39.64;95138.78;6130986;28;104433;-54
2022/06/20 01:30:14;;;;;;;2.17;2.03;;;;;;;23.66;39.85;95130.41;6110305;28;104912;-54
2022/06/20 01:33:20;;;;;;;2.50;2.30;;;;;;;23.65;40.03;95138.75;6116344;28;104354;-54
2022/06/20 01:39:45;;;;;;;2.17;2.00;;;;;;;23.68;39.58;95149.59;6109872;28;104740;-54
2022/06/20 01:42:49;;;;;;;2.60;2.40;;;;;;;23.64;39.83;95148.66;6127106;28;103760;-54
2022/06/20 01:46:01;;;;;;;2.57;2.37;;;;;;;23.64;39.87;95148.66;6125085;28;103758;-54
2022/06/20 01:49:06;;;;;;;2.17;2.00;;;;;;;23.65;39.47;95139.53;6114748;28;103541;-59
2022/06/20 01:52:17;;;;;;;2.17;2.00;;;;;;;23.61;39.39;95135.94;6109380;28;103737;-54
2022/06/20 01:55:24;;;;;;;2.00;1.90;;;;;;;23.62;39.32;95142.84;6110256;28;105016;-54
2022/06/20 01:58:33;;;;;;;2.40;2.00;;;;;;;23.62;39.06;95139.38;6099889;28;104016;-54
2022/06/20 02:01:37;;;;;;;2.50;2.30;;;;;;;23.58;39.04;95133.88;6100139;28;103771;-55
2022/06/20 02:04:41;;;;;;;2.50;2.33;;;;;;;23.48;39.68;95134.19;6085986;28;103672;-54
2022/06/20 02:07:45;;;;;;;3.80;2.40;;;;;;;23.51;39.72;95131.66;6084127;28;104215;-54
2022/06/20 02:10:55;;;;;;;1.90;1.80;;;;;;;23.57;39.59;95132.31;6082456;28;103754;-53
2022/06/20 02:14:05;;;;;;;2.00;1.90;;;;;;;23.74;39.75;95144.91;6109652;28;104472;-54
2022/06/20 02:17:13;;;;;;;2.93;2.70;;;;;;;23.78;39.55;95135.94;6105272;28;104174;-54
2022/06/20 02:20:21;;;;;;;2.60;2.43;;;;;;;23.81;39.71;95135.31;6107761;28;103996;-54
2022/06/20 02:23:27;;;;;;;3.40;2.43;;;;;;;23.69;39.74;95137.84;6117743;28;105089;-54
2022/06/20 02:26:31;;;;;;;5.10;2.70;;;;;;;23.25;40.43;95134.28;6110493;28;104013;-54
2022/06/20 02:29:36;;;;;;;2.67;2.37;;;;;;;23.10;41.11;95140.03;6109146;28;103891;-55
2022/06/20 02:32:44;;;;;;;2.57;2.37;;;;;;;23.01;41.54;95136.53;6104845;28;103463;-54
2022/06/20 02:35:47;;;;;;;2.93;2.63;;;;;;;23.19;41.25;95138.19;6113928;28;103471;-54
2022/06/20 02:38:52;;;;;;;2.50;2.30;;;;;;;23.12;41.42;95135.16;6114967;28;103880;-54
2022/06/20 02:42:00;;;;;;;2.50;2.30;;;;;;;23.18;41.23;95131.25;6110807;28;103860;-54
2022/06/20 02:45:10;;;;;;;3.67;2.87;;;;;;;23.24;40.82;95143.38;6109017;28;106978;-55
2022/06/20 02:48:15;;;;;;;2.33;2.13;;;;;;;23.24;40.68;95138.03;6107645;28;103708;-51
2022/06/20 02:51:26;;;;;;;2.90;2.30;;;;;;;23.20;41.06;95129.06;6113654;28;103816;-51
2022/06/20 02:54:33;;;;;;;2.50;2.30;;;;;;;23.20;40.45;95125.63;6102445;28;104889;-51
2022/06/20 02:57:44;;;;;;;3.27;2.97;;;;;;;23.16;40.95;95125.44;6113278;28;103761;-50
2022/06/20 03:00:54;;;;;;;3.80;2.97;;;;;;;23.18;40.36;95125.91;6089808;28;104653;-51
2022/06/20 03:03:59;;;;;;;2.80;2.60;;;;;;;23.20;40.75;95126.41;6116230;28;103527;-51
2022/06/20 03:07:08;;;;;;;2.60;2.10;;;;;;;23.27;40.76;95121.38;6103940;28;103759;-56
2022/06/20 03:10:20;;;;;;;4.83;3.10;;;;;;;23.43;40.46;95120.97;6117816;28;103900;-56
2022/06/20 03:13:24;;;;;;;3.43;2.83;;;;;;;23.60;40.18;95129.78;6125989;28;103615;-56
2022/06/20 03:16:29;;;;;;;6.97;6.47;;;;;;;23.68;40.81;95130.09;6103044;28;103719;-56
2022/06/20 03:19:36;;;;;;;5.43;5.03;;;;;;;23.71;40.45;95126.84;6109182;28;103672;-63
2022/06/20 03:22:47;;;;;;;3.40;3.10;;;;;;;23.69;41.75;95121.00;6128451;28;104074;-54
2022/06/20 03:25:52;;;;;;;3.90;3.50;;;;;;;23.76;41.77;95116.75;6128322;28;103596;-53
2022/06/20 03:28:56;;;;;;;3.13;2.93;;;;;;;23.81;41.42;95118.50;6126259;28;105037;-54
2022/06/20 03:32:00;;;;;;;5.10;3.30;;;;;;;23.81;41.11;95113.94;6121360;28;103825;-54
2022/06/20 03:35:04;;;;;;;3.30;3.10;;;;;;;23.84;41.23;95126.66;6113471;28;103866;-55
2022/06/20 03:38:08;;;;;;;3.40;3.10;;;;;;;23.83;43.38;95122.41;6113486;28;103922;-55
2022/06/20 03:41:14;;;;;;;4.40;3.00;;;;;;;23.81;42.18;95123.84;6100372;28;103910;-55
2022/06/20 03:44:21;;;;;;;6.27;3.53;;;;;;;23.84;43.27;95128.53;6113128;28;103519;-54
2022/06/20 03:47:31;;;;;;;4.23;4.00;;;;;;;23.90;42.25;95125.41;6111167;28;103941;-55
2022/06/20 03:50:39;;;;;;;3.53;3.23;;;;;;;23.86;43.12;95123.69;6103846;28;104202;-53
2022/06/20 03:53:45;;;;;;;3.30;3.10;;;;;;;23.88;44.10;95135.63;6112362;28;105070;-53
2022/06/20 03:57:03;;;;;;;3.63;3.43;;;;;;;23.80;42.10;95139.09;6112522;28;103705;-55
2022/06/20 04:00:11;;;;;;;3.17;2.87;;;;;;;23.78;42.08;95137.81;6112599;28;103870;-55
2022/06/20 04:03:21;;;;;;;4.23;3.77;;;;;;;23.83;41.90;95143.00;6101951;28;104124;-55
2022/06/20 04:06:31;;;;;;;4.40;4.00;;;;;;;23.83;42.25;95138.44;6116390;28;103663;-54
2022/06/20 04:13:05;;;;;;;5.03;3.97;;;;;;;23.81;42.96;95135.31;6102407;28;104147;-55
2022/06/20 04:16:12;;;;;;;4.27;3.33;;;;;;;23.83;43.54;95135.00;6108670;28;104002;-54
2022/06/20 04:19:21;;;;;;;7.00;4.47;;;;;;;23.89;43.92;95142.56;6109022;28;103381;-56
2022/06/20 04:22:28;;;;;;;4.47;4.07;;;;;;;23.68;43.08;95124.75;6110816;28;103879;-55
2022/06/20 04:25:38;;;;;;;3.83;3.40;;;;;;;23.53;42.75;95123.38;6091918;28;103721;-56
2022/06/20 04:28:45;;;;;;;3.63;3.30;;;;;;;23.27;43.43;95129.41;6087048;28;104901;-55
2022/06/20 04:31:52;;;;;;;4.00;3.57;;;;;;;23.34;43.00;95120.94;6088847;28;104518;-55
2022/06/20 04:35:03;;;;;;;3.90;2.90;;;;;;;23.37;43.08;95130.25;6087137;28;103735;-54
2022/06/20 04:38:14;;;;;;;4.23;3.40;;;;;;;23.14;42.97;95130.31;6076883;28;103952;-54
2022/06/20 04:41:22;;;;;;;4.23;3.10;;;;;;;23.03;43.20;95121.03;6085565;28;103605;-55
2022/06/20 04:44:33;;;;;;;3.70;3.40;;;;;;;23.07;42.98;95118.50;6085969;28;103696;-55
2022/06/20 04:47:42;;;;;;;3.50;3.20;;;;;;;22.96;43.05;95115.34;6075730;28;104612;-55
2022/06/20 04:50:49;;;;;;;4.20;3.40;;;;;;;22.82;42.76;95119.97;6087031;28;104681;-55
2022/06/20 04:53:52;;;;;;;3.60;3.30;;;;;;;22.66;42.50;95112.38;6087905;28;103985;-55
2022/06/20 04:56:57;;;;;;;3.50;3.20;;;;;;;22.70;42.52;95102.69;6088104;28;103712;-55
2022/06/20 05:00:04;;;;;;;4.10;2.97;;;;;;;22.99;42.44;95104.81;6077658;28;103953;-61
2022/06/20 05:03:08;;;;;;;3.20;2.90;;;;;;;23.22;42.24;95097.50;6087815;28;102964;-54
2022/06/20 05:06:20;;;;;;;3.70;3.40;;;;;;;23.33;42.27;95107.91;6087411;28;103691;-55
2022/06/20 05:09:30;;;;;;;3.53;3.30;;;;;;;23.36;42.08;95107.31;6084746;28;103746;-55
2022/06/20 05:12:40;;;;;;;4.43;3.07;;;;;;;23.43;42.03;95102.28;6106916;28;103490;-55
2022/06/20 05:15:45;;;;;;;4.00;3.40;;;;;;;23.48;41.99;95112.81;6112187;28;104235;-55
2022/06/20 05:18:53;;;;;;;2.93;2.73;;;;;;;23.45;42.29;95105.44;6111156;28;103674;-54
2022/06/20 05:22:01;;;;;;;3.27;3.00;;;;;;;23.45;42.60;95105.44;6101947;28;104753;-55
2022/06/20 05:25:08;;;;;;;3.63;3.10;;;;;;;23.41;42.81;95113.28;6111341;28;103855;-55
2022/06/20 05:28:17;;;;;;;4.03;3.73;;;;;;;23.43;42.76;95121.75;6111765;28;103796;-56
2022/06/20 05:31:27;;;;;;;3.70;3.40;;;;;;;23.44;42.47;95114.53;6112097;28;104685;-55
2022/06/20 05:34:37;;;;;;;3.30;3.00;;;;;;;23.49;42.03;95112.50;6100440;28;103717;-55
2022/06/20 05:37:51;;;;;;;2.73;2.53;;;;;;;23.55;41.27;95107.81;6110306;28;103613;-55
2022/06/20 05:40:57;;;;;;;3.40;3.20;;;;;;;23.53;41.75;95102.00;6111220;28;103952;-54
2022/06/20 05:44:04;;;;;;;3.17;2.97;;;;;;;23.59;41.57;95100.72;6103557;28;104685;-55
2022/06/20 05:47:17;;;;;;;3.50;3.20;;;;;;;23.63;41.69;95103.56;6111102;28;103704;-55
2022/06/20 05:50:32;;;;;;;5.00;4.50;;;;;;;23.60;43.20;95103.09;6111557;28;103656;-54
2022/06/20 05:53:42;;;;;;;3.67;3.47;;;;;;;23.56;43.48;95099.47;6111838;28;104963;-55
2022/06/20 05:56:48;;;;;;;3.93;3.27;;;;;;;23.62;42.81;95108.09;6100500;28;103571;-55
2022/06/20 05:59:56;;;;;;;4.70;3.40;;;;;;;23.75;42.41;95106.41;6111504;28;103905;-55
2022/06/20 06:03:03;;;;;;;5.30;3.40;;;;;;;23.82;42.67;95104.81;6110850;28;104970;-54
2022/06/20 06:06:17;;;;;;;4.10;3.20;;;;;;;23.92;41.61;95103.72;6106638;28;103890;-55
2022/06/20 06:09:27;;;;;;;4.30;2.97;;;;;;;24.06;42.18;95108.94;6109056;28;103783;-54
2022/06/20 06:12:36;;;;;;;3.47;3.20;;;;;;;24.15;42.18;95101.66;6115758;28;104704;-54
2022/06/20 06:16:46;;;;;;;3.90;2.90;;;;;;;24.22;42.16;95095.84;6115061;28;104128;-54
2022/06/20 06:19:17;;;;;;;5.10;3.40;;;;;;;24.26;42.01;95092.22;6104080;28;103896;-56
2022/06/20 06:22:22;;;;;;;3.30;3.00;;;;;;;24.32;42.21;95104.31;6115315;28;104808;-55
2022/06/20 06:25:29;;;;;;;4.60;2.97;;;;;;;24.35;41.89;95101.00;6114680;28;103766;-55
2022/06/20 06:28:33;;;;;;;3.93;3.40;;;;;;;24.38;42.15;95102.25;6114419;28;103389;-55
2022/06/20 06:31:41;;;;;;;3.70;3.40;;;;;;;24.42;42.29;95098.63;6104436;28;104259;-55
2022/06/20 06:34:53;;;;;;;6.43;3.53;;;;;;;24.40;42.70;95095.50;6115224;28;104018;-53
2022/06/20 06:38:01;;;;;;;4.07;3.70;;;;;;;24.45;42.81;95089.19;6114636;28;104987;-55
2022/06/20 06:41:17;;;;;;;5.30;3.73;;;;;;;24.48;42.48;95078.63;6104098;28;104741;-55
2022/06/20 06:44:33;;;;;;;3.43;3.13;;;;;;;24.55;42.26;95080.03;6115024;28;104993;-54
2022/06/20 06:47:42;;;;;;;4.83;3.70;;;;;;;24.57;42.09;95067.13;6114135;28;103909;-55
2022/06/20 06:50:49;;;;;;;4.73;3.20;;;;;;;24.61;42.18;95071.50;6114608;28;103898;-55
2022/06/20 06:53:59;;;;;;;4.67;3.60;;;;;;;24.59;42.32;95068.34;6103277;28;104047;-55
2022/06/20 06:57:06;;;;;;;5.33;3.43;;;;;;;24.39;42.87;95067.16;6114766;28;105155;-55
2022/06/20 07:00:24;;;;;;;7.67;4.10;;;;;;;24.43;43.02;95049.38;6114288;28;103677;-56
2022/06/20 07:03:31;;;;;;;5.67;4.30;;;;;;;24.48;42.72;95045.72;6106459;28;102955;-54
2022/06/20 07:06:41;;;;;;;7.80;4.63;;;;;;;24.53;42.39;95042.09;6113391;28;104118;-54
2022/06/20 07:09:48;;;;;;;6.30;4.80;;;;;;;24.58;42.57;95041.91;6113551;28;103772;-54
2022/06/20 07:12:56;;;;;;;4.90;4.13;;;;;;;24.61;42.25;95035.91;6114123;28;103846;-55
2022/06/20 07:16:03;;;;;;;4.17;3.73;;;;;;;24.59;42.23;95030.13;6103000;28;103657;-54
2022/06/20 07:19:11;;;;;;;6.90;3.93;;;;;;;24.67;42.23;95032.72;6114011;28;103645;-54
2022/06/20 07:22:16;;;;;;;5.33;4.57;;;;;;;24.73;42.36;95031.50;6114168;28;103735;-55
2022/06/20 07:25:23;;;;;;;4.37;3.97;;;;;;;24.77;42.23;95023.59;6113410;28;103870;-54
2022/06/20 07:28:36;;;;;;;6.07;4.90;;;;;;;24.84;42.20;95020.41;6104959;28;103734;-55
2022/06/20 07:31:42;;;;;;;5.80;4.37;;;;;;;24.84;42.10;95020.41;6113220;28;103807;-54
2022/06/20 07:34:50;;;;;;;5.80;4.40;;;;;;;24.79;41.89;95022.16;6114446;28;103882;-54
2022/06/20 07:38:00;;;;;;;3.93;3.47;;;;;;;24.78;41.35;95023.28;6102952;28;104003;-54
2022/06/20 07:41:07;;;;;;;6.23;4.90;;;;;;;24.84;41.45;95029.22;6114367;28;104007;-56
2022/06/20 07:44:18;;;;;;;7.53;5.67;;;;;;;24.87;41.02;95030.50;6113397;28;104115;-56
2022/06/20 07:47:29;;;;;;;10.67;6.67;;;;;;;24.87;40.64;95025.91;6113298;28;103885;-55
2022/06/20 07:50:38;;;;;;;6.80;6.10;;;;;;;24.95;40.67;95026.97;6103800;28;105203;-56
2022/06/20 07:53:46;;;;;;;7.57;5.47;;;;;;;24.89;40.67;95022.91;6113219;28;104235;-56
2022/06/20 07:56:52;;;;;;;14.73;6.57;;;;;;;24.91;40.72;95015.34;6113654;28;103698;-55
2022/06/20 08:00:03;;;;;;;7.97;5.33;;;;;;;24.98;40.41;95010.25;6107949;28;105074;-56
2022/06/20 08:03:10;;;;;;;5.87;5.30;;;;;;;25.00;40.78;95018.72;6112047;28;105271;-56
2022/06/20 08:06:22;;;;;;;4.80;4.40;;;;;;;24.90;40.35;95014.56;6114291;28;104786;-56
2022/06/20 08:09:31;;;;;;;6.47;3.73;;;;;;;24.92;39.58;95017.69;6113123;28;104625;-55
2022/06/20 08:12:39;;;;;;;6.03;3.80;;;;;;;24.96;39.46;95007.91;6102385;28;103803;-56
2022/06/20 08:15:50;;;;;;;8.80;4.60;;;;;;;25.03;39.87;95007.38;6111823;28;103942;-55
2022/06/20 08:18:53;;;;;;;5.70;5.20;;;;;;;25.05;39.96;94997.13;6113168;28;103800;-56
2022/06/20 08:22:01;;;;;;;6.73;6.13;;;;;;;25.11;38.74;95003.88;6112331;28;104008;-56
2022/06/20 08:25:10;;;;;;;5.30;4.90;;;;;;;25.09;38.87;95009.53;6105196;28;105425;-56
2022/06/20 08:28:18;;;;;;;4.97;4.10;;;;;;;25.07;38.42;95008.31;6112655;28;103845;-55
2022/06/20 08:31:30;;;;;;;5.13;3.33;;;;;;;25.07;37.86;95009.09;6111539;28;104888;-61
2022/06/20 08:34:40;;;;;;;5.60;3.77;;;;;;;25.16;38.08;95000.97;6103218;28;104673;-56
2022/06/20 08:37:49;;;;;;;4.50;4.17;;;;;;;25.17;38.53;94993.72;6112092;28;103626;-54
2022/06/20 08:41:37;;;;;;;6.10;5.50;;;;;;;25.26;38.68;94997.13;6113108;28;106833;-55
2022/06/20 08:45:22;;;;;;;4.90;3.57;;;;;;;25.25;38.09;94992.91;6037844;28;103809;-55
2022/06/20 08:49:18;;;;;;;5.57;3.60;;;;;;;25.17;36.95;94989.16;6032632;28;103842;-55
2022/06/20 08:52:55;;;;;;;3.70;3.40;;;;;;;25.23;36.56;94995.13;6111400;28;103175;-55
2022/06/20 08:56:12;;;;;;;5.07;3.60;;;;;;;25.24;37.59;94994.00;6112438;28;103557;-54
2022/06/20 08:59:30;;;;;;;3.90;3.60;;;;;;;25.23;38.06;94979.06;6106067;28;103706;-55
2022/06/20 09:03:03;;;;;;;4.43;3.67;;;;;;;25.22;37.90;94985.53;6111823;28;103809;-55
2022/06/20 09:06:41;;;;;;;7.10;4.40;;;;;;;25.22;38.08;94988.19;6112073;28;103642;-55
2022/06/20 09:10:11;;;;;;;4.27;3.50;;;;;;;25.20;37.60;94982.34;6101713;28;105058;-55
2022/06/20 09:13:43;;;;;;;2.90;2.70;;;;;;;25.16;36.10;94979.56;6112420;28;103922;-55
2022/06/20 09:17:00;;;;;;;3.63;2.50;;;;;;;25.23;35.60;94971.00;6111941;28;103775;-55
2022/06/20 09:20:14;;;;;;;2.90;2.70;;;;;;;25.28;35.93;94970.81;6102226;28;103970;-55
2022/06/20 09:23:44;;;;;;;3.10;2.87;;;;;;;25.26;35.60;94970.34;6110557;28;103697;-55
2022/06/20 09:26:54;;;;;;;2.67;2.47;;;;;;;25.26;34.97;94956.97;6111598;28;103584;-54
2022/06/20 09:30:05;;;;;;;5.10;3.60;;;;;;;25.28;36.29;94950.16;6111226;28;103667;-54
2022/06/20 09:33:52;;;;;;;3.00;2.80;;;;;;;25.25;35.94;94950.03;6105694;28;104743;-54
2022/06/20 09:37:18;;;;;;;2.50;2.30;;;;;;;25.29;35.07;94945.59;6111702;28;103775;-52
2022/06/20 09:40:37;;;;;;;4.40;3.10;;;;;;;25.16;36.04;94947.41;6112669;28;103745;-51
2022/06/20 09:43:48;;;;;;;2.47;2.27;;;;;;;25.21;36.32;94951.81;6105815;28;104812;-52
2022/06/20 09:47:02;;;;;;;2.90;2.70;;;;;;;25.26;36.01;94954.28;6116125;28;103653;-51
2022/06/20 09:50:21;;;;;;;3.43;3.23;;;;;;;25.27;36.45;94947.81;6116075;28;103703;-51
2022/06/20 09:53:36;;;;;;;3.30;2.90;;;;;;;25.28;36.58;94949.38;6110345;28;103832;-50
2022/06/20 09:56:48;;;;;;;3.67;3.30;;;;;;;25.29;36.52;94957.09;6113801;28;104062;-50
2022/06/20 09:59:58;;;;;;;3.10;2.90;;;;;;;25.29;36.34;94951.72;6115309;28;103824;-50
2022/06/20 10:03:12;;;;;;;2.70;2.50;;;;;;;25.27;35.84;94948.59;6115424;28;103966;-50
2022/06/20 10:06:28;;;;;;;2.90;2.70;;;;;;;25.26;35.51;94940.88;6105064;28;103736;-50
2022/06/20 10:09:41;;;;;;;2.80;2.60;;;;;;;25.27;35.56;94937.09;6115583;28;103773;-50
2022/06/20 10:12:51;;;;;;;3.40;3.17;;;;;;;25.25;35.59;94936.66;6115186;28;103953;-50
2022/06/20 10:16:11;;;;;;;2.73;2.53;;;;;;;25.24;35.50;94940.44;6109953;28;104008;-50
2022/06/20 10:19:21;;;;;;;3.17;2.70;;;;;;;25.21;35.02;94928.50;6112007;28;105308;-51
2022/06/20 10:22:34;;;;;;;2.87;2.67;;;;;;;25.21;34.68;94927.72;6114488;28;103876;-50
2022/06/20 10:26:11;;;;;;;2.50;2.30;;;;;;;25.18;35.05;94929.13;6115296;28;103811;-51
2022/06/20 10:29:23;;;;;;;3.60;2.40;;;;;;;25.17;34.65;94932.91;6101340;28;104221;-51
2022/06/20 10:32:36;;;;;;;2.83;2.63;;;;;;;25.17;34.90;94927.56;6114709;28;103898;-51
2022/06/20 10:35:45;;;;;;;2.70;2.50;;;;;;;25.13;34.96;94921.31;6114151;28;103757;-50
2022/06/20 10:39:04;;;;;;;3.30;3.00;;;;;;;25.13;34.79;94910.59;6109927;28;104055;-51
2022/06/20 10:42:30;;;;;;;3.43;3.23;;;;;;;25.13;35.21;94923.19;6114380;28;105171;-51
2022/06/20 10:45:44;;;;;;;4.00;3.70;;;;;;;25.12;35.21;94910.91;6115041;28;103688;-51
2022/06/20 10:49:15;;;;;;;3.90;3.60;;;;;;;25.10;35.04;94903.22;6114352;28;103680;-52
2022/06/20 10:52:34;;;;;;;3.80;3.50;;;;;;;25.11;34.93;94904.00;6103623;28;103836;-52
2022/06/20 10:55:48;;;;;;;4.80;4.40;;;;;;;25.06;35.45;94908.44;6114419;28;103653;-51
2022/06/20 10:59:05;;;;;;;5.97;5.47;;;;;;;25.08;35.71;94900.09;6113670;28;104237;-51
2022/06/20 11:02:30;;;;;;;6.33;5.90;;;;;;;25.07;35.64;94898.53;6103077;28;103754;-51
2022/06/20 11:05:42;;;;;;;5.80;5.40;;;;;;;25.04;35.14;94891.16;6113828;28;104243;-51
2022/06/20 11:08:57;;;;;;;5.30;4.90;;;;;;;25.04;34.73;94894.63;6115069;28;104782;-51
2022/06/20 11:12:06;;;;;;;5.27;4.47;;;;;;;25.03;34.64;94890.38;6114390;28;104877;-51
2022/06/20 11:15:20;;;;;;;4.73;4.37;;;;;;;25.03;34.32;94874.31;6106078;28;104530;-52
2022/06/20 11:18:35;;;;;;;6.13;5.73;;;;;;;25.02;35.32;94871.94;6114496;28;104028;-51
2022/06/20 11:21:47;;;;;;;7.37;6.83;;;;;;;25.01;34.95;94873.03;6114597;28;104645;-51
2022/06/20 11:25:00;;;;;;;7.83;7.13;;;;;;;25.00;35.20;94876.84;6104028;28;104285;-51
2022/06/20 11:28:22;;;;;;;7.97;7.27;;;;;;;25.00;35.64;94874.16;6113699;28;104773;-51
2022/06/20 11:31:38;;;;;;;7.67;7.07;;;;;;;24.98;35.66;94871.03;6114018;28;103739;-51
2022/06/20 11:34:57;;;;;;;8.00;7.40;;;;;;;24.97;35.71;94867.56;6112844;28;104461;-51
2022/06/20 11:38:28;;;;;;;7.40;6.80;;;;;;;24.96;35.56;94863.31;6103610;28;103607;-51
2022/06/20 11:41:37;;;;;;;7.40;6.90;;;;;;;24.95;35.35;94859.09;6114013;28;103790;-51
2022/06/20 11:44:54;;;;;;;6.80;6.30;;;;;;;24.93;34.02;94861.31;6113754;28;103710;-56
2022/06/20 11:48:16;;;;;;;4.90;4.50;;;;;;;24.91;33.58;94850.16;6103751;28;103114;-51
2022/06/20 11:51:29;;;;;;;3.50;3.30;;;;;;;24.90;32.44;94848.59;6113468;28;104012;-50
2022/06/20 11:54:42;;;;;;;4.37;4.07;;;;;;;24.90;32.65;94853.16;6113742;28;103784;-57
2022/06/20 11:57:55;;;;;;;7.93;7.33;;;;;;;24.89;33.40;94836.31;6113144;28;103665;-57
2022/06/20 12:01:03;;;;;;;7.03;6.53;;;;;;;24.88;33.81;94837.44;6108259;28;103907;-58
2022/06/20 12:04:15;;;;;;;9.57;8.87;;;;;;;24.86;34.09;94825.47;6113451;28;103670;-57
2022/06/20 12:07:24;;;;;;;5.90;5.40;;;;;;;24.84;32.92;94822.34;6113046;28;103731;-57
2022/06/20 12:10:37;;;;;;;3.73;3.53;;;;;;;24.83;32.39;94826.13;6102607;28;104098;-59
2022/06/20 12:13:51;;;;;;;2.97;2.70;;;;;;;24.83;32.08;94826.13;6112792;28;103685;-57
2022/06/20 12:17:06;;;;;;;3.67;3.37;;;;;;;24.82;32.01;94825.34;6113219;28;103678;-57
2022/06/20 12:23:53;;;;;;;2.10;2.00;;;;;;;24.78;30.62;94821.75;6108099;28;104452;-59
2022/06/20 12:26:56;;;;;;;2.47;2.10;;;;;;;24.78;30.59;94814.50;6112756;28;103993;-58
2022/06/20 12:30:00;;;;;;;2.60;1.90;;;;;;;24.81;30.71;94812.28;6113064;28;104941;-51
2022/06/20 12:33:10;;;;;;;2.10;2.00;;;;;;;24.81;31.05;94807.72;6103164;28;103868;-51
2022/06/20 12:36:22;;;;;;;3.10;2.10;;;;;;;24.81;31.40;94794.34;6112147;28;103673;-51
2022/06/20 12:39:32;;;;;;;2.60;2.37;;;;;;;24.79;31.76;94789.31;6111950;28;103643;-51
2022/06/20 12:42:46;;;;;;;2.80;2.60;;;;;;;24.82;32.10;94803.16;6112487;28;103917;-51
2022/06/20 12:46:26;;;;;;;2.77;2.67;;;;;;;24.82;32.35;94795.91;6102464;28;105136;-51
2022/06/20 12:50:01;;;;;;;2.63;2.33;;;;;;;24.79;32.77;94802.69;6103504;28;105275;-51
2022/06/20 12:53:22;;;;;;;2.80;2.60;;;;;;;24.82;33.13;94793.22;6112878;28;104714;-51
2022/06/20 12:56:45;;;;;;;3.07;2.87;;;;;;;24.82;33.42;94790.53;6101424;28;104648;-51
2022/06/20 13:00:15;;;;;;;2.90;2.70;;;;;;;24.83;33.52;94784.06;6112886;28;104393;-51
2022/06/20 13:03:47;;;;;;;2.47;2.27;;;;;;;24.82;33.81;94787.09;6112231;28;103713;-51
2022/06/20 13:07:14;;;;;;;3.20;2.90;;;;;;;24.82;33.76;94781.72;6101605;28;103924;-51
2022/06/20 13:10:31;;;;;;;2.83;2.63;;;;;;;24.82;34.07;94769.13;6112171;28;103852;-51
2022/06/20 13:14:17;;;;;;;2.93;2.73;;;;;;;24.82;34.19;94769.13;6111706;28;103712;-52
2022/06/20 13:17:32;;;;;;;2.63;2.43;;;;;;;24.82;34.30;94774.47;6108845;28;104815;-51
2022/06/20 13:20:46;;;;;;;2.50;2.30;;;;;;;24.81;34.42;94767.56;6107019;28;104060;-51
2022/06/20 13:24:00;;;;;;;2.30;2.20;;;;;;;24.81;34.19;94770.25;6112807;28;103749;-52
2022/06/20 13:27:18;;;;;;;2.80;2.60;;;;;;;24.81;34.27;94770.25;6112395;28;103296;-51
2022/06/20 13:30:37;;;;;;;2.30;2.20;;;;;;;24.81;34.16;94762.22;6102035;28;105400;-51
2022/06/20 13:33:49;;;;;;;3.07;2.87;;;;;;;24.81;34.40;94759.53;6111606;28;103694;-51
2022/06/20 13:37:00;;;;;;;2.70;2.57;;;;;;;24.81;34.32;94758.75;6111508;28;104099;-52
2022/06/20 13:40:17;;;;;;;3.10;2.90;;;;;;;24.79;34.26;94762.53;6110226;28;104927;-51
2022/06/20 13:43:28;;;;;;;3.60;3.40;;;;;;;24.80;34.46;94749.94;6107326;28;104376;-51
2022/06/20 13:46:36;;;;;;;2.77;2.57;;;;;;;24.81;34.36;94748.06;6111314;28;104031;-51
2022/06/20 13:49:47;;;;;;;3.03;2.83;;;;;;;24.81;34.58;94737.34;6111541;28;104639;-51
2022/06/20 13:52:55;;;;;;;3.83;3.53;;;;;;;24.80;34.57;94741.91;6101827;28;103302;-51
2022/06/20 13:56:19;;;;;;;5.30;4.90;;;;;;;24.80;34.92;94733.88;6111647;28;104438;-51
2022/06/20 13:59:29;;;;;;;5.50;5.10;;;;;;;24.80;34.99;94733.88;6111657;28;103854;-51
2022/06/20 14:02:39;;;;;;;5.23;4.83;;;;;;;24.80;35.18;94733.88;6111710;28;103102;-51
2022/06/20 14:05:43;;;;;;;5.10;4.80;;;;;;;24.80;35.24;94728.53;6102203;28;103880;-51
2022/06/20 14:08:51;;;;;;;5.50;5.07;;;;;;;24.81;35.34;94721.28;6111532;28;103666;-51
2022/06/20 14:11:57;;;;;;;5.80;5.30;;;;;;;24.82;35.38;94722.84;6111163;28;104024;-52
2022/06/20 14:15:03;;;;;;;5.23;4.83;;;;;;;24.81;35.42;94721.28;6101210;28;105164;-51
2022/06/20 14:18:20;;;;;;;4.57;4.27;;;;;;;24.80;35.43;94715.16;6109885;28;104706;-51
2022/06/20 14:21:31;;;;;;;5.60;5.20;;;;;;;24.79;35.49;94713.59;6110863;28;103395;-51
2022/06/20 14:24:39;;;;;;;4.73;4.43;;;;;;;24.79;35.19;94709.03;6110541;28;103784;-51
2022/06/20 14:27:49;;;;;;;4.47;4.17;;;;;;;24.80;35.53;94715.16;6101285;28;104720;-51
2022/06/20 14:30:58;;;;;;;4.77;4.30;;;;;;;24.81;35.43;94710.59;6115444;28;104885;-52
2022/06/20 14:34:11;;;;;;;5.00;4.60;;;;;;;24.80;35.57;94709.81;6115072;28;103733;-52
2022/06/20 14:37:19;;;;;;;5.73;5.33;;;;;;;24.79;35.42;94705.56;6100885;28;103871;-52
2022/06/20 14:40:28;;;;;;;8.90;8.20;;;;;;;24.81;36.99;94705.22;6085688;28;103895;-55
2022/06/20 14:43:37;;;;;;;9.40;8.60;;;;;;;24.83;38.01;94703.00;6100292;28;103883;-54
2022/06/20 14:46:50;;;;;;;10.00;9.30;;;;;;;24.84;38.03;94707.25;6114137;28;103791;-55
2022/06/20 14:50:02;;;;;;;9.87;8.97;;;;;;;24.83;38.85;94703.78;6103940;28;104545;-55
2022/06/20 14:53:13;;;;;;;10.20;9.30;;;;;;;24.88;38.97;94702.81;6115366;28;105000;-55
2022/06/20 14:56:22;;;;;;;9.53;8.63;;;;;;;24.90;38.48;94708.59;6101942;28;104298;-56
2022/06/20 14:59:33;;;;;;;8.43;7.83;;;;;;;24.89;38.37;94704.38;6090524;28;103984;-56
2022/06/20 15:02:43;;;;;;;9.60;8.80;;;;;;;24.88;38.31;94703.59;6083599;28;103714;-56